Terminal Aerodrome Forecast
Issued by NWS

Home | Current Version | Previous Version | Graphics & Text | Print | Product List | Glossary On
Versions: 1 2 3 4 5 6 7 8 9 10 11 12 13 14 15 16 17 18 19 20 21 22 23 24 25 26 27 28 29 30 31 32
000
FTUS43 KLOT 231900 AAA
TAFORD
TAF AMD
KORD 231951Z 2320/2424 03015G25KT P6SM FEW025 FEW250
     FM240000 03012G18KT P6SM FEW250
     FM240300 02008KT P6SM FEW250
     FM240600 01004KT P6SM FEW250
     FM242000 06009KT P6SM SKC=

USA.gov is the U.S. government's official web portal to all federal, state and local government web resources and services.